地図

経路データ

SID SEASON NUMBER BASIN SUBBASIN NAME ISO_TIME NATURE LAT LON WMO_WIND WMO_PRES WMO_AGENCY TRACK_TYPE DIST2LAND LANDFALL IFLAG USA_AGENCY USA_ATCF_ID USA_LAT USA_LON USA_RECORD USA_STATUS USA_WIND USA_PRES USA_SSHS USA_R34_NE USA_R34_SE USA_R34_SW USA_R34_NW USA_R50_NE USA_R50_SE USA_R50_SW USA_R50_NW USA_R64_NE USA_R64_SE USA_R64_SW USA_R64_NW USA_POCI USA_ROCI USA_RMW USA_EYE TOKYO_LAT TOKYO_LON TOKYO_GRADE TOKYO_WIND TOKYO_PRES TOKYO_R50_DIR TOKYO_R50_LONG TOKYO_R50_SHORT TOKYO_R30_DIR TOKYO_R30_LONG TOKYO_R30_SHORT TOKYO_LAND CMA_LAT CMA_LON CMA_CAT CMA_WIND CMA_PRES HKO_LAT HKO_LON HKO_CAT HKO_WIND HKO_PRES NEWDELHI_LAT NEWDELHI_LON NEWDELHI_GRADE NEWDELHI_WIND NEWDELHI_PRES NEWDELHI_CI NEWDELHI_DP NEWDELHI_POCI REUNION_LAT REUNION_LON REUNION_TYPE REUNION_WIND REUNION_PRES REUNION_TNUM REUNION_CI REUNION_RMW REUNION_R34_NE REUNION_R34_SE REUNION_R34_SW REUNION_R34_NW REUNION_R50_NE REUNION_R50_SE REUNION_R50_SW REUNION_R50_NW REUNION_R64_NE REUNION_R64_SE REUNION_R64_SW REUNION_R64_NW BOM_LAT BOM_LON BOM_TYPE BOM_WIND BOM_PRES BOM_TNUM BOM_CI BOM_RMW BOM_R34_NE BOM_R34_SE BOM_R34_SW BOM_R34_NW BOM_R50_NE BOM_R50_SE BOM_R50_SW BOM_R50_NW BOM_R64_NE BOM_R64_SE BOM_R64_SW BOM_R64_NW BOM_ROCI BOM_POCI BOM_EYE BOM_POS_METHOD BOM_PRES_METHOD NADI_LAT NADI_LON NADI_CAT NADI_WIND NADI_PRES WELLINGTON_LAT WELLINGTON_LON WELLINGTON_WIND WELLINGTON_PRES DS824_LAT DS824_LON DS824_STAGE DS824_WIND DS824_PRES TD9636_LAT TD9636_LON TD9636_STAGE TD9636_WIND TD9636_PRES TD9635_LAT TD9635_LON TD9635_WIND TD9635_PRES TD9635_ROCI NEUMANN_LAT NEUMANN_LON NEUMANN_CLASS NEUMANN_WIND NEUMANN_PRES MLC_LAT MLC_LON MLC_CLASS MLC_WIND MLC_PRES USA_GUST BOM_GUST BOM_GUST_PER REUNION_GUST REUNION_GUST_PER USA_SEAHGT USA_SEARAD_NE USA_SEARAD_SE USA_SEARAD_SW USA_SEARAD_NW STORM_SPEED STORM_DIR
1901011S16056 1901 8 SI MM NOT_NAMED 1901-01-11 06:00:00 NR -16.4000 55.7000 main 455 435 __________O___ -1 -16.4000 55.7000 7 5 183
1901011S16056 1901 8 SI MM NOT_NAMED 1901-01-11 09:00:00 NR -16.6500 55.6798 main 435 405 __________P___ -1 -16.6500 55.6798 7 5 184
1901011S16056 1901 8 SI MM NOT_NAMED 1901-01-11 12:00:00 NR -16.8900 55.6576 main 405 390 __________P___ -1 -16.8900 55.6576 7 5 184
1901011S16056 1901 8 SI MM NOT_NAMED 1901-01-11 15:00:00 NR -17.1100 55.6317 main 390 371 __________P___ -1 -17.1100 55.6317 7 4 187
1901011S16056 1901 8 SI MM NOT_NAMED 1901-01-11 18:00:00 NR -17.3000 55.6000 main 371 362 __________O___ -1 -17.3000 55.6000 7 4 192
1901011S16056 1901 8 SI MM NOT_NAMED 1901-01-11 21:00:00 NR -17.4585 55.5611 main 352 350 __________P___ -1 -17.4585 55.5611 7 3 193
1901011S16056 1901 8 SI MM NOT_NAMED 1901-01-12 00:00:00 NR -17.6175 55.5147 main 350 332 __________P___ -1 -17.6175 55.5147 7 4 196
1901011S16056 1901 8 SI MM NOT_NAMED 1901-01-12 03:00:00 NR -17.8178 55.4610 main 332 314 __________P___ -1 -17.8178 55.4610 7 5 193
1901011S16056 1901 8 SI MM NOT_NAMED 1901-01-12 06:00:00 NR -18.1000 55.4000 main 314 279 __________O___ -1 -18.1000 55.4000 7 7 190
1901011S16056 1901 8 SI MM NOT_NAMED 1901-01-12 09:00:00 NR -18.5341 55.3284 main 279 223 __________P___ -1 -18.5341 55.3284 7 10 189
1901011S16056 1901 8 SI MM NOT_NAMED 1901-01-12 12:00:00 NR -19.0476 55.2503 main 223 156 __________P___ -1 -19.0476 55.2503 7 11 188
1901011S16056 1901 8 SI MM NOT_NAMED 1901-01-12 15:00:00 NR -19.5873 55.1721 main 156 102 __________P___ -1 -19.5873 55.1721 7 11 188
1901011S16056 1901 8 SI MM NOT_NAMED 1901-01-12 18:00:00 NR -20.1000 55.1000 main 102 64 __________O___ -1 -20.1000 55.1000 7 10 187
1901011S16056 1901 8 SI MM NOT_NAMED 1901-01-12 21:00:00 NR -20.5393 55.0386 main 64 30 __________P___ -1 -20.5393 55.0386 7 9 187
1901011S16056 1901 8 SI MM NOT_NAMED 1901-01-13 00:00:00 NR -20.9399 54.9849 main 30 20 __________P___ -1 -20.9399 54.9849 7 8 187
1901011S16056 1901 8 SI MM NOT_NAMED 1901-01-13 03:00:00 NR -21.2956 54.9387 main 38 38 __________P___ -1 -21.2956 54.9387 7 7 187
1901011S16056 1901 8 SI MM NOT_NAMED 1901-01-13 06:00:00 NR -21.6000 54.9000 main 53 53 __________O___ -1 -21.6000 54.9000 7 6 185
1901011S16056 1901 8 SI MM NOT_NAMED 1901-01-13 09:00:00 NR -21.8543 54.8717 main 78 78 __________P___ -1 -21.8543 54.8717 7 5 185
1901011S16056 1901 8 SI MM NOT_NAMED 1901-01-13 12:00:00 NR -22.0600 54.8498 main 103 103 __________P___ -1 -22.0600 54.8498 7 4 186
1901011S16056 1901 8 SI MM NOT_NAMED 1901-01-13 15:00:00 NR -22.2356 54.8280 main 113 113 __________P___ -1 -22.2356 54.8280 7 3 187
1901011S16056 1901 8 SI MM NOT_NAMED 1901-01-13 18:00:00 NR -22.4000 54.8000 main 133 133 __________O___ -1 -22.4000 54.8000 7 4 192
1901011S16056 1901 8 SI MM NOT_NAMED 1901-01-13 21:00:00 NR -22.5863 54.7491 main 157 157 __________P___ -1 -22.5863 54.7491 7 4 195
1901011S16056 1901 8 SI MM NOT_NAMED 1901-01-14 00:00:00 NR -22.7650 54.6926 main 178 178 __________P___ -1 -22.7650 54.6926 7 4 195
1901011S16056 1901 8 SI MM NOT_NAMED 1901-01-14 03:00:00 NR -22.9363 54.6398 main 192 192 __________P___ -1 -22.9363 54.6398 7 3 195
1901011S16056 1901 8 SI MM NOT_NAMED 1901-01-14 06:00:00 NR -23.1000 54.6000 main 213 213 __________O___ -1 -23.1000 54.6000 7 3 187
1901011S16056 1901 8 SI MM NOT_NAMED 1901-01-14 09:00:00 NR -23.2531 54.5896 main 234 234 __________P___ -1 -23.2531 54.5896 7 3 0
1901011S16056 1901 8 SI MM NOT_NAMED 1901-01-14 12:00:00 NR -23.4000 54.5923 main 245 245 __________P___ -1 -23.4000 54.5923 7 3 0
1901011S16056 1901 8 SI MM NOT_NAMED 1901-01-14 15:00:00 NR -23.5469 54.5989 main 256 256 __________P___ -1 -23.5469 54.5989 7 3 0
1901011S16056 1901 8 SI MM NOT_NAMED 1901-01-14 18:00:00 NR -23.7000 54.6000 main 276 276 __________O___ -1 -23.7000 54.6000 7 3 0
1901011S16056 1901 8 SI MM NOT_NAMED 1901-01-14 21:00:00 NR -23.8191 54.5742 main 287 287 __________P___ -1 -23.8191 54.5742 7 3 193
1901011S16056 1901 8 SI MM NOT_NAMED 1901-01-15 00:00:00 NR -23.9525 54.5427 main 311 311 __________P___ -1 -23.9525 54.5427 7 3 191
1901011S16056 1901 8 SI MM NOT_NAMED 1901-01-15 03:00:00 NR -24.1347 54.5149 main 322 322 __________P___ -1 -24.1347 54.5149 7 5 185
1901011S16056 1901 8 SI MM NOT_NAMED 1901-01-15 06:00:00 NR -24.4000 54.5000 main 353 353 __________O___ -1 -24.4000 54.5000 7 7 182
1901011S16056 1901 8 SI MM NOT_NAMED 1901-01-15 09:00:00 NR -24.7928 54.4947 main 396 396 __________P___ -1 -24.7928 54.4947 7 9 179
1901011S16056 1901 8 SI MM NOT_NAMED 1901-01-15 12:00:00 NR -25.2675 54.5055 main 450 450 __________P___ -1 -25.2675 54.5055 7 10 178
1901011S16056 1901 8 SI MM NOT_NAMED 1901-01-15 15:00:00 NR -25.7834 54.5386 main 504 504 __________P___ -1 -25.7834 54.5386 7 10 175
1901011S16056 1901 8 SI MM NOT_NAMED 1901-01-15 18:00:00 NR -26.3000 54.6000 main 556 556 __________O___ -1 -26.3000 54.6000 7 10 172
1901011S16056 1901 8 SI MM NOT_NAMED 1901-01-15 21:00:00 NR -26.7694 54.6959 main 610 610 __________P___ -1 -26.7694 54.6959 7 10 168
1901011S16056 1901 8 SI MM NOT_NAMED 1901-01-16 00:00:00 NR -27.2300 54.8196 main 653 653 __________P___ -1 -27.2300 54.8196 7 9 165
1901011S16056 1901 8 SI MM NOT_NAMED 1901-01-16 03:00:00 NR -27.6757 54.9585 main 706 706 __________P___ -1 -27.6757 54.9585 7 9 164
1901011S16056 1901 8 SI MM NOT_NAMED 1901-01-16 06:00:00 NR -28.1000 55.1000 main 750 750 __________O___ -1 -28.1000 55.1000 7 8 165
1901011S16056 1901 8 SI MM NOT_NAMED 1901-01-16 09:00:00 NR -28.4883 55.2136 main 794 794 __________P___ -1 -28.4883 55.2136 7 8 165
1901011S16056 1901 8 SI MM NOT_NAMED 1901-01-16 12:00:00 NR -28.8573 55.3287 main 838 838 __________P___ -1 -28.8573 55.3287 7 8 164
1901011S16056 1901 8 SI MM NOT_NAMED 1901-01-16 15:00:00 NR -29.2226 55.4544 main 871 871 __________P___ -1 -29.2226 55.4544 7 8 162
1901011S16056 1901 8 SI MM NOT_NAMED 1901-01-16 18:00:00 NR -29.6000 55.6000 main 916 916 __________O___ -1 -29.6000 55.6000 7 8 161
1901011S16056 1901 8 SI MM NOT_NAMED 1901-01-16 21:00:00 NR -29.9943 55.7669 main 960 960 __________P___ -1 -29.9943 55.7669 7 9 159
1901011S16056 1901 8 SI MM NOT_NAMED 1901-01-17 00:00:00 NR -30.4049 55.9561 main 1006 1006 __________P___ -1 -30.4049 55.9561 7 9 158
1901011S16056 1901 8 SI MM NOT_NAMED 1901-01-17 03:00:00 NR -30.8380 56.1673 main 1051 1051 __________P___ -1 -30.8380 56.1673 7 10 157
1901011S16056 1901 8 SI MM NOT_NAMED 1901-01-17 06:00:00 NR -31.3000 56.4000 main 1108 1108 __________O___ -1 -31.3000 56.4000 7 11 157
1901011S16056 1901 8 SI MM NOT_NAMED 1901-01-17 09:00:00 NR -31.8044 56.6533 main 1166 1166 __________P___ -1 -31.8044 56.6533 7 11 157
1901011S16056 1901 8 SI MM NOT_NAMED 1901-01-17 12:00:00 NR -32.3351 56.9273 main 1224 1224 __________P___ -1 -32.3351 56.9273 7 12 156
1901011S16056 1901 8 SI MM NOT_NAMED 1901-01-17 15:00:00 NR -32.8732 57.2128 main 1293 1293 __________P___ -1 -32.8732 57.2128 7 12 156
1901011S16056 1901 8 SI MM NOT_NAMED 1901-01-17 18:00:00 NR -33.4000 57.5000 main 1352 1352 __________O___ -1 -33.4000 57.5000 7 11 155
1901011S16056 1901 8 SI MM NOT_NAMED 1901-01-17 21:00:00 NR -33.9013 57.7808 main 1412 1412 __________P___ -1 -33.9013 57.7808 7 11 155
1901011S16056 1901 8 SI MM NOT_NAMED 1901-01-18 00:00:00 NR -34.3803 58.0559 main 1471 1471 __________P___ -1 -34.3803 58.0559 7 10 154
1901011S16056 1901 8 SI MM NOT_NAMED 1901-01-18 03:00:00 NR -34.8441 58.3280 main 1519 1519 __________P___ -1 -34.8441 58.3280 7 10 154
1901011S16056 1901 8 SI MM NOT_NAMED 1901-01-18 06:00:00 NR -35.3000 58.6000 main 1578 __________O___ -1 -35.3000 58.6000 7 10 154

IBTrACS Databaseについて

本データベースは、米国NOAAが公開する1842年以降の世界の熱帯低気圧のベストトラックデータアーカイブInternational Best Track Archive for Climate Stewardship (IBTrACS)を、ウェブで閲覧しやすい形式に変換したものです。

最終更新日:2021-12-01